Hippo, Kentucky
Current Conditions -  °F | °C
As of 5:00 PM on Friday 28 Nov 2014 (Local Time) from KSJS Reporting Station
Overcast Overcast  
Wind Chill: 31°   Ceiling: 12000
Heat Index: 35°   Visibility: 10mi
Dew Point: 18°   Wind: 5mph
Humidity: 51%   Direction: 210°SSW
Pressure: 30.25"   Gusts: NA
Location:  37.6405°N, 82.8256°W
Report Text: KSJS 282200Z AUTO 21004KT 10SM OVC120 02/M08 A3025 RMK AO2 T00151078
Loading
Personal Weather Stations






























Interactive Weather Map New forecast layout! Learn more

10-Day Weather Forecast

Advertisements
Track Severe Weather on mobile